| time (UTC) | temp F | wind direction | speed MPH | gust MPH | rain 1hr in | rain 24hr in | rain mn in | humidity % | barometer mb |
| 20260502042710 | 51 | 29 | 11.0 | 14.0 | 0.00 | 0.01 | 0.00 | ||
| 20260502041708 | 51 | 350 | 10.0 | 17.0 | 0.00 | 0.01 | 0.00 | ||
| 20260502041207 | 52 | 11 | 12.0 | 17.0 | 0.00 | 0.01 | 0.00 | ||
| 20260501221555 | 53 | 343 | 7.0 | 10.0 | 0.00 | 0.01 | 0.00 | ||
| 20260501221055 | 53 | 348 | 7.0 | 10.0 | 0.00 | 0.01 | 0.00 | ||
| 20260501220553 | 54 | 333 | 7.0 | 10.0 | 0.00 | 0.01 | 0.00 | ||
| 20260501214551 | 54 | 338 | 9.0 | 10.0 | 0.00 | 0.01 | 0.00 | ||
| 20260501214048 | 54 | 343 | 8.0 | 11.0 | 0.00 | 0.01 | 0.00 | ||
| 20260501213547 | 54 | 348 | 8.0 | 11.0 | 0.00 | 0.01 | 0.00 | ||
| 20260501213046 | 54 | 343 | 8.0 | 11.0 | 0.00 | 0.01 | 0.01 | ||
| 20260501211042 | 54 | 341 | 8.0 | 11.0 | 0.00 | 0.01 | 0.01 | ||
| 20260501205539 | 54 | 331 | 8.0 | 10.0 | 0.00 | 0.01 | 0.01 | ||
| 20260501205039 | 54 | 336 | 7.0 | 10.0 | 0.00 | 0.01 | 0.01 | ||
| 20260501204037 | 54 | 341 | 6.0 | 11.0 | 0.00 | 0.01 | 0.01 | ||
| 20260501203037 | 0 | 323 | 7.0 | 9.0 | 0.00 | 0.00 | 0.00 | ||
| 20260501203034 | 54 | 323 | 7.0 | 9.0 | 0.00 | 0.01 | 0.01 | ||
| 20260501202533 | 54 | 329 | 7.0 | 9.0 | 0.00 | 0.01 | 0.01 | ||
| 20260501202032 | 54 | 334 | 8.0 | 9.0 | 0.00 | 0.01 | 0.01 | ||
| 20260501201532 | 54 | 333 | 7.0 | 9.0 | 0.00 | 0.01 | 0.01 | ||
| 20260501201032 | 54 | 336 | 8.0 | 12.0 | 0.00 | 0.01 | 0.01 | ||
| 20260501195527 | 54 | 350 | 8.0 | 13.0 | 0.00 | 0.01 | 0.01 | ||
| 20260501195027 | 54 | 1 | 10.0 | 13.0 | 0.00 | 0.01 | 0.01 | ||
| 20260501194026 | 54 | 334 | 10.0 | 12.0 | 0.00 | 0.01 | 0.01 | ||
| 20260501193524 | 54 | 11 | 8.0 | 12.0 | 0.00 | 0.01 | 0.01 | ||
| 20260501193022 | 54 | 336 | 8.0 | 12.0 | 0.00 | 0.01 | 0.01 | ||
| 20260501192522 | 54 | 333 | 9.0 | 11.0 | 0.00 | 0.01 | 0.01 | ||
| 20260501191519 | 54 | 327 | 8.0 | 12.0 | 0.00 | 0.01 | 0.01 | ||
| 20260501191018 | 54 | 330 | 8.0 | 12.0 | 0.00 | 0.01 | 0.01 | ||
| 20260501190517 | 54 | 336 | 8.0 | 12.0 | 0.00 | 0.01 | 0.01 | ||
| 20260501185515 | 55 | 331 | 10.0 | 14.0 | 0.00 | 0.01 | 0.01 | ||
| 20260501183513 | 54 | 1 | 11.0 | 14.0 | 0.00 | 0.01 | 0.01 | ||
| 20260501183012 | 54 | 1 | 12.0 | 14.0 | 0.00 | 0.01 | 0.01 | ||
| 20260501182514 | 54 | 357 | 12.0 | 14.0 | 0.00 | 0.01 | 0.01 | ||
| 20260501180505 | 53 | 348 | 12.0 | 15.0 | 0.00 | 0.01 | 0.01 | ||
| 20260501180004 | 53 | 4 | 12.0 | 15.0 | 0.00 | 0.01 | 0.01 | ||
| 20260501175503 | 54 | 337 | 10.0 | 12.0 | 0.00 | 0.01 | 0.01 |